Time;durP1;ratioP1;P1;durP2;ratioP2;P2;SDS_P1;SDS_P2;PMS_P1;PMS_P2;Temp;Humidity;BMP_temperature;BMP_pressure;BME280_temperature;BME280_humidity;BME280_pressure;Samples;Min_cycle;Max_cycle;Signal;HPM_P1;HPM_P2
2023/04/17 00:01:07;;;;;;;32.05;21.40;;;;;;;;;;5070472;28;20238;-63
2023/04/17 00:03:36;;;;;;;28.77;19.10;;;;;;;;;;5074285;28;20847;-62
2023/04/17 00:06:05;;;;;;;25.92;20.75;;;;;;;;;;5087583;28;20235;-62
2023/04/17 00:08:33;;;;;;;28.58;20.17;;;;;;;;;;5093655;28;20234;-63
2023/04/17 00:11:01;;;;;;;31.15;21.23;;;;;;;;;;5075452;28;20266;-66
2023/04/17 00:13:29;;;;;;;25.85;20.70;;;;;;;;;;5087048;28;20235;-62
2023/04/17 00:15:58;;;;;;;26.48;21.02;;;;;;;;;;5093597;28;20239;-62
2023/04/17 00:18:27;;;;;;;29.50;20.90;;;;;;;;;;5094623;28;20647;-64
2023/04/17 00:20:55;;;;;;;32.60;22.45;;;;;;;;;;5092563;28;20226;-65
2023/04/17 00:23:24;;;;;;;30.40;21.02;;;;;;;;;;5088493;28;20268;-66
2023/04/17 00:25:52;;;;;;;33.03;21.10;;;;;;;;;;5085725;28;20227;-66
2023/04/17 00:28:20;;;;;;;26.75;20.17;;;;;;;;;;5094563;28;20242;-63
2023/04/17 00:30:48;;;;;;;25.70;20.40;;;;;;;;;;5094539;28;20239;-63
2023/04/17 00:33:16;;;;;;;32.13;20.77;;;;;;;;;;5093803;28;20678;-65
2023/04/17 00:35:46;;;;;;;30.55;22.40;;;;;;;;;;5093369;28;20239;-63
2023/04/17 00:38:14;;;;;;;28.38;19.67;;;;;;;;;;5093058;28;20239;-62
2023/04/17 00:40:44;;;;;;;28.42;21.77;;;;;;;;;;5092030;28;20227;-62
2023/04/17 00:43:12;;;;;;;30.20;21.90;;;;;;;;;;5093752;28;20231;-63
2023/04/17 00:45:40;;;;;;;32.03;20.48;;;;;;;;;;5093899;28;20227;-64
2023/04/17 00:48:09;;;;;;;29.83;21.67;;;;;;;;;;5093671;28;20227;-65
2023/04/17 00:50:38;;;;;;;27.02;20.38;;;;;;;;;;5093862;28;20228;-65
2023/04/17 00:53:07;;;;;;;27.10;20.27;;;;;;;;;;5094629;28;20223;-63
2023/04/17 00:55:36;;;;;;;26.95;19.75;;;;;;;;;;5092619;28;20203;-63
2023/04/17 00:58:04;;;;;;;29.80;22.00;;;;;;;;;;5077115;28;20224;-64
2023/04/17 01:00:32;;;;;;;28.80;20.60;;;;;;;;;;5075798;28;20669;-63
2023/04/17 01:03:00;;;;;;;31.25;22.90;;;;;;;;;;5072586;28;20504;-63
2023/04/17 01:05:29;;;;;;;33.13;22.92;;;;;;;;;;5072527;28;20311;-63
2023/04/17 01:07:58;;;;;;;36.15;20.85;;;;;;;;;;5072642;28;20200;-63
2023/04/17 01:10:27;;;;;;;30.73;21.60;;;;;;;;;;5073420;28;20235;-65
2023/04/17 01:13:02;;;;;;;31.02;22.40;;;;;;;;;;5055127;28;20196;-63
2023/04/17 01:15:30;;;;;;;29.58;21.85;;;;;;;;;;5072537;28;20629;-63
2023/04/17 01:17:58;;;;;;;36.10;23.33;;;;;;;;;;5065639;28;20579;-63
2023/04/17 01:20:29;;;;;;;33.25;24.10;;;;;;;;;;5053389;28;20724;-62
2023/04/17 01:22:58;;;;;;;37.88;22.50;;;;;;;;;;5053631;28;20192;-63
2023/04/17 01:25:28;;;;;;;32.90;22.73;;;;;;;;;;5068526;28;20216;-63
2023/04/17 01:27:57;;;;;;;31.73;24.33;;;;;;;;;;5053939;28;20193;-63
2023/04/17 01:30:25;;;;;;;37.88;23.90;;;;;;;;;;5052968;28;20205;-64
2023/04/17 01:33:06;;;;;;;30.73;22.45;;;;;;;;;;5060733;28;20254;-65
2023/04/17 01:35:34;;;;;;;33.08;22.98;;;;;;;;;;5054183;28;20196;-63
2023/04/17 01:38:02;;;;;;;34.42;22.67;;;;;;;;;;5056988;28;20730;-64
2023/04/17 01:40:32;;;;;;;30.77;23.00;;;;;;;;;;5054177;28;20204;-64
2023/04/17 01:43:00;;;;;;;31.33;23.05;;;;;;;;;;5052486;28;20200;-64
2023/04/17 01:45:29;;;;;;;36.25;24.23;;;;;;;;;;5054223;28;20227;-64
2023/04/17 01:47:59;;;;;;;37.03;23.65;;;;;;;;;;5069513;28;20198;-64
2023/04/17 01:50:27;;;;;;;30.13;21.77;;;;;;;;;;5071135;28;20197;-64
2023/04/17 01:52:56;;;;;;;32.20;23.25;;;;;;;;;;5066719;28;20203;-64
2023/04/17 01:55:24;;;;;;;35.70;24.48;;;;;;;;;;5072945;28;20210;-65
2023/04/17 01:57:53;;;;;;;36.42;24.40;;;;;;;;;;5072667;28;20879;-64
2023/04/17 02:00:22;;;;;;;33.85;23.70;;;;;;;;;;5071760;28;20577;-66
2023/04/17 02:02:50;;;;;;;33.10;22.95;;;;;;;;;;5051168;28;20740;-64
2023/04/17 02:05:18;;;;;;;38.78;23.60;;;;;;;;;;5052647;28;20227;-63
2023/04/17 02:07:47;;;;;;;36.00;25.20;;;;;;;;;;5061343;28;20551;-64
2023/04/17 02:10:15;;;;;;;37.15;23.73;;;;;;;;;;5051012;28;20243;-63
2023/04/17 02:12:43;;;;;;;35.50;25.63;;;;;;;;;;5052987;28;20204;-64
2023/04/17 02:15:13;;;;;;;35.10;23.70;;;;;;;;;;5052692;28;20218;-64
2023/04/17 02:17:41;;;;;;;33.10;24.40;;;;;;;;;;5053590;28;20204;-64
2023/04/17 02:20:12;;;;;;;33.10;23.65;;;;;;;;;;5052793;28;20236;-64
2023/04/17 02:22:41;;;;;;;35.53;23.65;;;;;;;;;;5054604;28;20200;-64
2023/04/17 02:25:09;;;;;;;36.00;24.00;;;;;;;;;;5072522;28;20216;-64
2023/04/17 02:27:37;;;;;;;36.13;24.33;;;;;;;;;;5072632;28;20200;-64
2023/04/17 02:30:08;;;;;;;31.63;24.77;;;;;;;;;;5071092;28;20207;-65
2023/04/17 02:32:37;;;;;;;35.55;23.27;;;;;;;;;;5072228;28;20203;-64
2023/04/17 02:35:08;;;;;;;34.38;25.40;;;;;;;;;;5071312;28;20181;-64
2023/04/17 02:37:36;;;;;;;36.03;24.02;;;;;;;;;;5054766;28;20234;-64
2023/04/17 02:40:06;;;;;;;30.13;23.88;;;;;;;;;;5071180;28;20208;-64
2023/04/17 02:42:34;;;;;;;32.95;23.45;;;;;;;;;;5072071;28;20684;-64
2023/04/17 02:45:04;;;;;;;36.38;25.15;;;;;;;;;;5071103;28;20222;-65
2023/04/17 02:47:32;;;;;;;37.65;24.10;;;;;;;;;;5066495;28;20206;-63
2023/04/17 02:50:03;;;;;;;33.17;23.40;;;;;;;;;;5071017;28;20230;-64
2023/04/17 02:52:37;;;;;;;33.58;24.33;;;;;;;;;;5070592;28;20635;-64
2023/04/17 02:55:05;;;;;;;35.83;24.17;;;;;;;;;;5071420;28;20200;-65
2023/04/17 02:57:34;;;;;;;33.17;23.13;;;;;;;;;;5070080;28;20212;-64
2023/04/17 03:00:06;;;;;;;30.17;21.35;;;;;;;;;;5063071;28;20200;-64
2023/04/17 03:02:35;;;;;;;33.38;23.55;;;;;;;;;;5061714;28;20206;-64
2023/04/17 03:05:05;;;;;;;30.20;22.63;;;;;;;;;;5071727;28;20297;-64
2023/04/17 03:07:34;;;;;;;33.15;23.63;;;;;;;;;;5070221;28;20241;-64
2023/04/17 03:10:02;;;;;;;32.80;21.88;;;;;;;;;;5068281;28;20242;-65
2023/04/17 03:12:31;;;;;;;31.33;22.90;;;;;;;;;;5050250;28;20209;-64
2023/04/17 03:15:00;;;;;;;35.08;23.50;;;;;;;;;;5060451;28;20196;-64
2023/04/17 03:17:28;;;;;;;31.65;22.20;;;;;;;;;;5059253;28;20199;-64
2023/04/17 03:19:56;;;;;;;36.10;22.95;;;;;;;;;;5052611;28;20227;-64
2023/04/17 03:22:26;;;;;;;29.77;21.05;;;;;;;;;;5064755;28;20199;-64
2023/04/17 03:24:54;;;;;;;32.00;23.63;;;;;;;;;;5050725;28;20224;-64
2023/04/17 03:27:24;;;;;;;37.30;25.88;;;;;;;;;;5050526;28;20201;-64
2023/04/17 03:29:55;;;;;;;36.17;24.90;;;;;;;;;;5050616;28;20265;-64
2023/04/17 03:32:23;;;;;;;30.60;21.80;;;;;;;;;;5049891;28;20666;-64
2023/04/17 03:34:52;;;;;;;38.38;23.50;;;;;;;;;;5052338;28;20615;-65
2023/04/17 03:37:21;;;;;;;31.02;21.65;;;;;;;;;;5050960;28;20659;-64
2023/04/17 03:39:51;;;;;;;34.67;23.30;;;;;;;;;;5051155;28;20689;-64
2023/04/17 03:42:19;;;;;;;35.33;23.60;;;;;;;;;;5049460;28;20215;-65
2023/04/17 03:44:47;;;;;;;32.78;22.45;;;;;;;;;;5055757;28;20862;-64
2023/04/17 03:47:15;;;;;;;36.58;23.75;;;;;;;;;;5060270;28;20204;-64
2023/04/17 03:49:44;;;;;;;33.55;24.70;;;;;;;;;;5070046;28;20574;-64
2023/04/17 03:52:12;;;;;;;34.40;25.02;;;;;;;;;;5054457;28;20204;-64
2023/04/17 03:54:41;;;;;;;31.42;22.50;;;;;;;;;;5054154;28;20649;-64
2023/04/17 03:57:11;;;;;;;32.53;22.75;;;;;;;;;;5066254;28;20208;-64
2023/04/17 03:59:40;;;;;;;27.52;21.60;;;;;;;;;;5062725;28;20197;-64
2023/04/17 04:02:08;;;;;;;33.75;23.70;;;;;;;;;;5049482;28;20537;-65
2023/04/17 04:04:38;;;;;;;34.25;21.23;;;;;;;;;;5061622;28;20648;-65
2023/04/17 04:07:11;;;;;;;35.60;23.35;;;;;;;;;;5061655;28;20201;-64
2023/04/17 04:09:39;;;;;;;32.05;23.42;;;;;;;;;;5050008;28;20232;-64
2023/04/17 04:12:09;;;;;;;33.85;24.65;;;;;;;;;;5063907;28;20188;-65
2023/04/17 04:14:43;;;;;;;34.97;24.30;;;;;;;;;;5082838;28;20297;-69
2023/04/17 04:17:12;;;;;;;31.55;23.45;;;;;;;;;;5082720;28;20275;-69
2023/04/17 04:19:42;;;;;;;34.35;23.73;;;;;;;;;;5065371;28;20279;-67
2023/04/17 04:22:12;;;;;;;35.60;24.00;;;;;;;;;;5062677;28;20256;-70
2023/04/17 04:24:46;;;;;;;36.60;24.98;;;;;;;;;;5061637;28;20193;-69
2023/04/17 04:27:17;;;;;;;37.90;25.42;;;;;;;;;;5061887;28;20747;-69
2023/04/17 04:29:48;;;;;;;34.40;25.83;;;;;;;;;;5071269;28;20275;-69
2023/04/17 04:32:17;;;;;;;34.58;25.00;;;;;;;;;;5068753;28;20433;-69
2023/04/17 04:34:48;;;;;;;35.83;25.92;;;;;;;;;;5063826;28;20248;-69
2023/04/17 04:37:20;;;;;;;33.85;24.65;;;;;;;;;;5080357;28;20741;-69
2023/04/17 04:39:52;;;;;;;37.42;26.70;;;;;;;;;;5073472;28;20275;-69
2023/04/17 04:42:21;;;;;;;34.45;25.05;;;;;;;;;;5073161;28;20271;-64
2023/04/17 04:45:12;;;;;;;40.17;26.75;;;;;;;;;;5082723;28;20204;-69
2023/04/17 04:47:40;;;;;;;40.78;27.60;;;;;;;;;;5077450;28;20252;-70
2023/04/17 04:50:09;;;;;;;38.22;26.00;;;;;;;;;;5065612;28;20738;-67
2023/04/17 04:52:38;;;;;;;37.65;27.10;;;;;;;;;;5067145;28;20268;-70
2023/04/17 04:55:14;;;;;;;43.50;28.85;;;;;;;;;;5067046;28;20255;-68
2023/04/17 04:57:47;;;;;;;38.10;26.70;;;;;;;;;;5087565;28;20625;-69
2023/04/17 05:00:17;;;;;;;39.35;27.50;;;;;;;;;;5078544;28;20271;-68
2023/04/17 05:02:48;;;;;;;38.63;27.85;;;;;;;;;;5067789;28;20240;-68
2023/04/17 05:05:18;;;;;;;41.08;29.13;;;;;;;;;;5079842;28;20301;-68
2023/04/17 05:07:46;;;;;;;37.67;27.30;;;;;;;;;;5086638;28;20224;-68
2023/04/17 05:10:16;;;;;;;40.28;30.15;;;;;;;;;;5070905;28;20323;-68
2023/04/17 05:12:50;;;;;;;39.50;27.58;;;;;;;;;;5074954;28;20249;-68
2023/04/17 05:15:20;;;;;;;39.05;28.52;;;;;;;;;;5068269;28;20225;-68
2023/04/17 05:17:49;;;;;;;43.92;30.35;;;;;;;;;;5070640;28;20245;-68
2023/04/17 05:20:17;;;;;;;42.72;29.92;;;;;;;;;;5064947;28;20295;-69
2023/04/17 05:22:51;;;;;;;45.30;30.38;;;;;;;;;;5067012;28;20244;-68
2023/04/17 05:25:19;;;;;;;42.00;28.45;;;;;;;;;;5082283;28;20279;-68
2023/04/17 05:27:48;;;;;;;41.80;30.13;;;;;;;;;;5072771;28;20311;-68
2023/04/17 05:30:16;;;;;;;44.58;31.35;;;;;;;;;;5068953;28;20463;-68
2023/04/17 05:32:49;;;;;;;41.00;31.33;;;;;;;;;;5077705;28;20268;-69
2023/04/17 05:35:34;;;;;;;43.20;29.70;;;;;;;;;;5066889;28;20284;-71
2023/04/17 05:38:03;;;;;;;44.42;31.23;;;;;;;;;;5058075;28;20252;-64
2023/04/17 05:40:31;;;;;;;41.42;30.83;;;;;;;;;;5082884;28;20219;-67
2023/04/17 05:43:05;;;;;;;43.72;31.05;;;;;;;;;;5093508;28;20228;-70
2023/04/17 05:45:34;;;;;;;39.38;27.90;;;;;;;;;;5076098;28;20747;-67
2023/04/17 05:48:03;;;;;;;41.13;27.63;;;;;;;;;;5073235;28;20219;-67
2023/04/17 05:50:32;;;;;;;38.17;29.00;;;;;;;;;;5073072;28;20210;-68
2023/04/17 05:53:00;;;;;;;38.85;27.90;;;;;;;;;;5067315;28;20649;-69
2023/04/17 05:55:33;;;;;;;39.50;28.52;;;;;;;;;;5071922;28;20196;-67
2023/04/17 05:58:03;;;;;;;39.40;27.92;;;;;;;;;;5070892;28;20192;-69
2023/04/17 06:00:31;;;;;;;43.65;26.73;;;;;;;;;;5073966;28;20226;-69
2023/04/17 06:03:06;;;;;;;39.78;28.45;;;;;;;;;;5070465;28;20195;-70
2023/04/17 06:05:39;;;;;;;37.15;27.77;;;;;;;;;;5070022;28;20666;-70
2023/04/17 06:08:07;;;;;;;40.78;28.42;;;;;;;;;;5072596;28;20220;-69
2023/04/17 06:10:36;;;;;;;40.78;28.35;;;;;;;;;;5068129;28;20690;-70
2023/04/17 06:13:05;;;;;;;37.22;27.95;;;;;;;;;;5060141;28;20303;-70
2023/04/17 06:15:33;;;;;;;36.92;27.75;;;;;;;;;;5057381;28;20208;-70
2023/04/17 06:18:01;;;;;;;33.28;25.45;;;;;;;;;;5070903;28;20214;-69
2023/04/17 06:20:31;;;;;;;39.00;26.55;;;;;;;;;;5066218;28;20221;-69
2023/04/17 06:22:59;;;;;;;39.90;26.48;;;;;;;;;;5053103;28;20211;-69
2023/04/17 06:25:27;;;;;;;33.70;25.55;;;;;;;;;;5051278;28;20658;-68
2023/04/17 06:27:56;;;;;;;35.90;26.40;;;;;;;;;;5072833;28;20212;-68
2023/04/17 06:30:24;;;;;;;39.08;29.42;;;;;;;;;;5076996;28;20279;-65
2023/04/17 06:32:55;;;;;;;41.85;27.40;;;;;;;;;;5057520;28;20544;-64
2023/04/17 06:35:23;;;;;;;41.72;26.30;;;;;;;;;;5054386;28;20193;-64
2023/04/17 06:37:58;;;;;;;31.60;24.42;;;;;;;;;;5038941;28;20188;-64
2023/04/17 06:40:26;;;;;;;40.65;28.33;;;;;;;;;;5070352;28;20756;-64
2023/04/17 06:42:55;;;;;;;32.33;25.45;;;;;;;;;;5057903;28;20201;-65
2023/04/17 06:45:25;;;;;;;38.47;25.02;;;;;;;;;;5054402;28;20223;-65
2023/04/17 06:47:54;;;;;;;39.70;25.52;;;;;;;;;;5067467;28;20228;-65
2023/04/17 06:50:22;;;;;;;33.40;26.10;;;;;;;;;;5050769;28;20549;-65
2023/04/17 06:52:51;;;;;;;33.97;25.45;;;;;;;;;;5051931;28;20226;-66
2023/04/17 06:55:21;;;;;;;36.30;25.33;;;;;;;;;;5070760;28;20548;-63
2023/04/17 06:57:49;;;;;;;35.85;24.40;;;;;;;;;;5067671;28;20222;-64
2023/04/17 07:00:18;;;;;;;37.92;27.10;;;;;;;;;;5064137;28;20666;-64
2023/04/17 07:02:46;;;;;;;32.97;24.60;;;;;;;;;;5050982;28;20196;-65
2023/04/17 07:05:15;;;;;;;38.72;26.58;;;;;;;;;;5054219;28;20733;-65
2023/04/17 07:07:43;;;;;;;32.60;25.05;;;;;;;;;;5061708;28;20225;-64
2023/04/17 07:10:14;;;;;;;36.60;25.20;;;;;;;;;;5060464;28;20900;-64
2023/04/17 07:12:44;;;;;;;34.83;25.73;;;;;;;;;;5050211;28;20204;-64
2023/04/17 07:15:12;;;;;;;32.00;26.02;;;;;;;;;;5065377;28;20207;-62
2023/04/17 07:17:40;;;;;;;36.25;24.50;;;;;;;;;;5064153;28;20509;-64
2023/04/17 07:20:09;;;;;;;33.33;25.75;;;;;;;;;;5063864;28;20565;-64
2023/04/17 07:22:37;;;;;;;37.40;26.85;;;;;;;;;;5051844;28;20222;-63
2023/04/17 07:25:06;;;;;;;37.17;26.33;;;;;;;;;;5052191;28;20208;-64
2023/04/17 07:27:35;;;;;;;30.98;24.65;;;;;;;;;;5050916;28;20319;-64
2023/04/17 07:30:05;;;;;;;35.35;26.13;;;;;;;;;;5060799;28;20230;-64
2023/04/17 07:32:33;;;;;;;35.58;26.55;;;;;;;;;;5066283;28;20560;-63
2023/04/17 07:35:01;;;;;;;33.50;24.38;;;;;;;;;;5051921;28;20214;-64
2023/04/17 07:37:30;;;;;;;34.95;26.85;;;;;;;;;;5059188;28;20193;-65
2023/04/17 07:39:58;;;;;;;30.88;23.60;;;;;;;;;;5063702;28;20221;-63
2023/04/17 07:42:27;;;;;;;35.78;27.10;;;;;;;;;;5049458;28;20657;-63
2023/04/17 07:44:55;;;;;;;31.73;24.50;;;;;;;;;;5054478;28;20215;-63
2023/04/17 07:47:25;;;;;;;38.85;24.98;;;;;;;;;;5061468;28;20731;-63
2023/04/17 07:49:53;;;;;;;28.10;22.33;;;;;;;;;;5050824;28;20223;-64
2023/04/17 07:52:21;;;;;;;30.05;23.60;;;;;;;;;;5051704;28;20203;-64
2023/04/17 07:54:49;;;;;;;31.75;24.45;;;;;;;;;;5062959;28;20199;-65
2023/04/17 07:57:17;;;;;;;32.53;24.35;;;;;;;;;;5051261;28;20207;-64
2023/04/17 07:59:46;;;;;;;35.33;23.88;;;;;;;;;;5054675;28;20211;-63
2023/04/17 08:02:15;;;;;;;31.55;24.60;;;;;;;;;;5058629;28;20205;-64
2023/04/17 08:04:45;;;;;;;30.85;24.90;;;;;;;;;;5051306;28;20254;-64
2023/04/17 08:07:13;;;;;;;30.48;22.58;;;;;;;;;;5064992;28;20212;-64
2023/04/17 08:09:41;;;;;;;24.00;20.48;;;;;;;;;;5072516;28;20251;-63
2023/04/17 08:12:09;;;;;;;27.45;22.33;;;;;;;;;;5054638;28;20199;-64
2023/04/17 08:14:39;;;;;;;28.75;22.45;;;;;;;;;;5065134;28;20711;-65
2023/04/17 08:17:07;;;;;;;23.83;21.17;;;;;;;;;;5070429;28;20707;-64
2023/04/17 08:19:35;;;;;;;27.42;21.90;;;;;;;;;;5053945;28;20243;-65
2023/04/17 08:22:06;;;;;;;26.95;20.35;;;;;;;;;;5068484;28;20203;-64
2023/04/17 08:24:34;;;;;;;23.33;19.50;;;;;;;;;;5065597;28;20237;-64
2023/04/17 08:27:04;;;;;;;22.10;19.50;;;;;;;;;;5075495;28;20277;-63
2023/04/17 08:29:32;;;;;;;24.47;18.30;;;;;;;;;;5073012;28;20593;-64
2023/04/17 08:32:00;;;;;;;23.67;18.10;;;;;;;;;;5074135;28;20648;-64
2023/04/17 08:34:30;;;;;;;22.63;17.97;;;;;;;;;;5073862;28;20196;-64
2023/04/17 08:36:58;;;;;;;21.60;17.47;;;;;;;;;;5069030;28;20673;-63
2023/04/17 08:39:28;;;;;;;20.73;15.60;;;;;;;;;;5070276;28;20622;-65
2023/04/17 08:41:59;;;;;;;19.08;16.63;;;;;;;;;;5063565;28;20631;-64
2023/04/17 08:44:28;;;;;;;19.03;16.50;;;;;;;;;;5056030;28;20531;-63
2023/04/17 08:46:58;;;;;;;18.30;14.97;;;;;;;;;;5066860;28;21196;-63
2023/04/17 08:49:28;;;;;;;18.80;16.90;;;;;;;;;;5056410;28;21303;-64
2023/04/17 08:51:56;;;;;;;19.60;15.85;;;;;;;;;;5056674;28;20580;-64
2023/04/17 08:54:26;;;;;;;20.13;15.85;;;;;;;;;;5066648;28;20200;-64
2023/04/17 08:56:56;;;;;;;16.60;14.23;;;;;;;;;;5074656;28;20203;-63
2023/04/17 08:59:24;;;;;;;14.90;13.30;;;;;;;;;;5058844;28;20685;-63
2023/04/17 09:02:02;;;;;;;14.40;11.63;;;;;;;;;;5054195;28;20596;-64
2023/04/17 09:04:38;;;;;;;14.40;12.93;;;;;;;;;;5073008;28;20604;-63
2023/04/17 09:07:07;;;;;;;13.30;11.43;;;;;;;;;;5067475;28;21145;-64
2023/04/17 09:09:48;;;;;;;12.37;10.07;;;;;;;;;;5066091;28;20644;-63
2023/04/17 09:12:18;;;;;;;13.47;10.97;;;;;;;;;;5061850;28;20687;-64
2023/04/17 09:14:46;;;;;;;13.13;10.80;;;;;;;;;;5056255;28;20612;-63
2023/04/17 09:17:16;;;;;;;9.90;9.00;;;;;;;;;;5070191;28;20196;-63
2023/04/17 09:20:08;;;;;;;9.73;8.80;;;;;;;;;;5073494;28;20588;-63
2023/04/17 09:22:38;;;;;;;11.27;10.13;;;;;;;;;;5058578;28;20635;-63
2023/04/17 09:25:15;;;;;;;11.63;10.33;;;;;;;;;;5059537;28;20230;-64
2023/04/17 09:27:45;;;;;;;14.13;9.20;;;;;;;;;;5051482;28;21213;-64
2023/04/17 09:30:14;;;;;;;10.60;9.50;;;;;;;;;;5052430;28;20601;-64
2023/04/17 09:32:42;;;;;;;10.25;8.88;;;;;;;;;;5056150;28;20627;-64
2023/04/17 09:35:10;;;;;;;11.53;8.40;;;;;;;;;;5058464;28;20208;-63
2023/04/17 09:37:48;;;;;;;9.07;8.17;;;;;;;;;;5067211;28;20618;-64
2023/04/17 09:40:17;;;;;;;10.17;9.27;;;;;;;;;;5077122;28;20647;-64
2023/04/17 09:42:56;;;;;;;9.60;8.33;;;;;;;;;;5054586;28;20698;-64
2023/04/17 09:45:25;;;;;;;9.07;8.20;;;;;;;;;;5053530;28;21116;-64
2023/04/17 09:47:54;;;;;;;10.43;8.03;;;;;;;;;;5053696;28;21289;-64
2023/04/17 09:50:24;;;;;;;9.90;8.90;;;;;;;;;;5053537;28;21007;-64
2023/04/17 09:52:52;;;;;;;9.20;8.30;;;;;;;;;;5052852;28;20623;-64
2023/04/17 09:55:21;;;;;;;9.50;8.60;;;;;;;;;;5053173;28;20619;-64
2023/04/17 09:57:50;;;;;;;10.67;9.23;;;;;;;;;;5053313;28;20650;-65
2023/04/17 10:00:22;;;;;;;9.73;7.93;;;;;;;;;;5054735;28;21024;-63
2023/04/17 10:02:51;;;;;;;9.87;8.50;;;;;;;;;;5052840;28;20927;-64
2023/04/17 10:05:20;;;;;;;9.67;8.67;;;;;;;;;;5054197;28;20610;-63
2023/04/17 10:07:48;;;;;;;10.70;8.90;;;;;;;;;;5064265;28;20630;-64
2023/04/17 10:10:22;;;;;;;10.83;9.47;;;;;;;;;;5064296;28;20628;-64
2023/04/17 10:12:51;;;;;;;8.77;7.93;;;;;;;;;;5052212;28;20568;-63
2023/04/17 10:15:21;;;;;;;11.00;8.70;;;;;;;;;;5050896;28;21004;-62
2023/04/17 10:17:49;;;;;;;9.60;8.73;;;;;;;;;;5051899;28;20634;-62
2023/04/17 10:20:34;;;;;;;10.87;9.97;;;;;;;;;;5058390;28;21239;-62
2023/04/17 10:23:23;;;;;;;9.43;8.63;;;;;;;;;;5070601;28;20651;-62
2023/04/17 10:26:13;;;;;;;9.50;8.80;;;;;;;;;;5061058;28;20616;-61
2023/04/17 10:28:48;;;;;;;13.10;11.90;;;;;;;;;;5054272;28;20673;-62
2023/04/17 10:31:18;;;;;;;13.30;12.00;;;;;;;;;;5059239;28;20869;-63
2023/04/17 10:33:49;;;;;;;14.60;12.50;;;;;;;;;;5071487;28;20850;-63
2023/04/17 10:36:33;;;;;;;13.83;12.43;;;;;;;;;;5054295;28;20603;-64
2023/04/17 10:39:12;;;;;;;14.13;12.30;;;;;;;;;;5055217;28;20651;-64
2023/04/17 10:41:56;;;;;;;13.90;11.87;;;;;;;;;;5064242;28;20614;-61
2023/04/17 10:44:25;;;;;;;14.17;12.77;;;;;;;;;;5064351;28;21174;-62
2023/04/17 10:46:54;;;;;;;13.50;12.00;;;;;;;;;;5071676;28;20603;-62
2023/04/17 10:49:23;;;;;;;11.83;10.73;;;;;;;;;;5072281;28;20714;-64
2023/04/17 10:51:51;;;;;;;11.80;10.60;;;;;;;;;;5067366;28;20659;-65
2023/04/17 10:54:19;;;;;;;11.73;10.50;;;;;;;;;;5050948;28;20999;-64
2023/04/17 10:56:48;;;;;;;12.00;10.63;;;;;;;;;;5065487;28;20589;-65
2023/04/17 10:59:17;;;;;;;13.47;11.30;;;;;;;;;;5054742;28;20605;-64
2023/04/17 11:02:07;;;;;;;10.53;9.43;;;;;;;;;;5059961;28;20603;-64
2023/04/17 11:04:36;;;;;;;12.20;10.70;;;;;;;;;;5053631;28;20645;-64
2023/04/17 11:07:04;;;;;;;10.87;9.80;;;;;;;;;;5060269;28;20606;-65
2023/04/17 11:09:33;;;;;;;14.30;9.10;;;;;;;;;;5065326;28;21050;-65
2023/04/17 11:12:01;;;;;;;12.80;10.40;;;;;;;;;;5059824;28;20971;-65
2023/04/17 11:14:30;;;;;;;12.30;11.03;;;;;;;;;;5067397;28;20623;-65
2023/04/17 11:17:01;;;;;;;11.65;9.65;;;;;;;;;;5059570;28;20667;-65
2023/04/17 11:19:29;;;;;;;12.90;9.80;;;;;;;;;;5057356;28;20195;-64
2023/04/17 11:22:00;;;;;;;12.40;9.23;;;;;;;;;;5051789;28;20608;-64
2023/04/17 11:24:29;;;;;;;10.77;8.60;;;;;;;;;;5050196;28;20580;-64
2023/04/17 11:26:58;;;;;;;10.73;9.63;;;;;;;;;;5049219;28;21160;-62
2023/04/17 11:29:27;;;;;;;11.10;9.03;;;;;;;;;;5051018;28;20213;-63
2023/04/17 11:31:56;;;;;;;11.13;9.32;;;;;;;;;;5055769;28;20616;-62
2023/04/17 11:34:26;;;;;;;10.63;9.55;;;;;;;;;;5056976;28;20557;-64
2023/04/17 11:36:56;;;;;;;10.63;9.50;;;;;;;;;;5059266;28;20202;-62
2023/04/17 11:39:26;;;;;;;11.00;9.90;;;;;;;;;;5059928;28;20605;-63
2023/04/17 11:41:55;;;;;;;13.67;10.23;;;;;;;;;;5055409;28;20204;-63
2023/04/17 11:44:24;;;;;;;10.30;9.30;;;;;;;;;;5051115;28;20612;-63
2023/04/17 11:46:52;;;;;;;12.20;10.90;;;;;;;;;;5051066;28;20205;-65
2023/04/17 11:49:26;;;;;;;12.13;10.57;;;;;;;;;;5051420;28;20224;-64
2023/04/17 11:51:54;;;;;;;11.93;10.67;;;;;;;;;;5051026;28;20584;-64
2023/04/17 11:54:27;;;;;;;12.90;11.30;;;;;;;;;;5050391;28;20656;-65
2023/04/17 11:56:58;;;;;;;11.70;10.50;;;;;;;;;;5052283;28;20195;-65
2023/04/17 11:59:30;;;;;;;11.40;10.13;;;;;;;;;;5060104;28;20654;-65
2023/04/17 12:02:00;;;;;;;11.90;10.40;;;;;;;;;;5074201;28;20640;-65
2023/04/17 12:04:32;;;;;;;13.00;10.90;;;;;;;;;;5068098;28;20202;-63
2023/04/17 12:07:00;;;;;;;16.25;11.15;;;;;;;;;;5063345;28;20189;-64
2023/04/17 12:09:31;;;;;;;12.55;10.40;;;;;;;;;;5056361;28;20216;-64
2023/04/17 12:12:00;;;;;;;11.98;9.57;;;;;;;;;;5063794;28;20200;-64
2023/04/17 12:14:28;;;;;;;12.40;10.73;;;;;;;;;;5059725;28;20658;-64
2023/04/17 12:16:56;;;;;;;10.43;9.43;;;;;;;;;;5062856;28;20260;-63
2023/04/17 12:19:26;;;;;;;10.40;8.37;;;;;;;;;;5063024;28;21207;-63
2023/04/17 12:21:54;;;;;;;7.60;6.78;;;;;;;;;;5069203;28;20589;-63
2023/04/17 12:24:23;;;;;;;7.68;6.78;;;;;;;;;;5064112;28;20643;-63
2023/04/17 12:26:53;;;;;;;7.85;7.05;;;;;;;;;;5064699;28;20214;-66
2023/04/17 12:29:21;;;;;;;11.25;8.65;;;;;;;;;;5067934;28;20231;-66
2023/04/17 12:31:50;;;;;;;9.40;7.28;;;;;;;;;;5069218;28;20204;-63
2023/04/17 12:34:18;;;;;;;9.27;8.07;;;;;;;;;;5076687;28;20212;-63
2023/04/17 12:36:46;;;;;;;10.27;8.20;;;;;;;;;;5074046;28;20207;-64
2023/04/17 12:39:15;;;;;;;8.70;7.90;;;;;;;;;;5074926;28;20218;-63
2023/04/17 12:41:43;;;;;;;9.27;8.38;;;;;;;;;;5073839;28;20210;-64
2023/04/17 12:44:13;;;;;;;9.07;7.53;;;;;;;;;;5067396;28;20698;-65
2023/04/17 12:46:41;;;;;;;9.82;8.50;;;;;;;;;;5062150;28;21110;-64
2023/04/17 12:49:09;;;;;;;9.30;8.40;;;;;;;;;;5072609;28;20204;-64
2023/04/17 12:51:37;;;;;;;8.70;7.80;;;;;;;;;;5063265;28;20740;-64
2023/04/17 12:54:06;;;;;;;7.83;7.00;;;;;;;;;;5054994;28;20601;-66
2023/04/17 12:56:34;;;;;;;7.83;7.20;;;;;;;;;;5054399;28;20605;-64
2023/04/17 12:59:02;;;;;;;7.27;6.53;;;;;;;;;;5053867;28;20629;-65
2023/04/17 13:01:32;;;;;;;7.10;5.78;;;;;;;;;;5051779;28;20996;-64
2023/04/17 13:04:00;;;;;;;6.88;5.93;;;;;;;;;;5050478;28;20200;-63
2023/04/17 13:06:28;;;;;;;6.33;5.77;;;;;;;;;;5053780;28;20539;-65
2023/04/17 13:08:57;;;;;;;7.63;5.70;;;;;;;;;;5052121;28;20582;-63
2023/04/17 13:11:26;;;;;;;5.77;5.27;;;;;;;;;;5052829;28;20673;-64
2023/04/17 13:13:54;;;;;;;7.17;6.53;;;;;;;;;;5052831;28;20626;-63
2023/04/17 13:16:22;;;;;;;7.27;6.43;;;;;;;;;;5054259;28;20627;-62
2023/04/17 13:18:52;;;;;;;6.13;5.40;;;;;;;;;;5053745;28;20982;-62
2023/04/17 13:21:20;;;;;;;6.30;5.80;;;;;;;;;;5053115;28;21069;-63
2023/04/17 13:23:48;;;;;;;6.07;5.67;;;;;;;;;;5070113;28;20606;-63
2023/04/17 13:26:16;;;;;;;6.97;6.37;;;;;;;;;;5062545;28;20624;-63
2023/04/17 13:28:45;;;;;;;6.27;5.87;;;;;;;;;;5072260;28;20606;-63
2023/04/17 13:31:13;;;;;;;6.50;6.00;;;;;;;;;;5072488;28;21280;-63
2023/04/17 13:33:41;;;;;;;8.40;7.07;;;;;;;;;;5073054;28;20683;-63
2023/04/17 13:36:11;;;;;;;7.00;6.50;;;;;;;;;;5072949;28;20591;-62
2023/04/17 13:38:39;;;;;;;7.23;6.63;;;;;;;;;;5072539;28;20898;-62
2023/04/17 13:41:07;;;;;;;7.37;6.87;;;;;;;;;;5073621;28;20622;-62
2023/04/17 13:43:35;;;;;;;8.53;7.83;;;;;;;;;;5062214;28;20608;-62
2023/04/17 13:46:04;;;;;;;7.60;6.90;;;;;;;;;;5067177;28;20650;-62
2023/04/17 13:48:32;;;;;;;9.53;7.43;;;;;;;;;;5072581;28;20601;-61
2023/04/17 13:51:00;;;;;;;8.57;7.80;;;;;;;;;;5074007;28;20684;-62
2023/04/17 13:53:30;;;;;;;8.10;7.50;;;;;;;;;;5076289;28;20620;-62
2023/04/17 13:55:58;;;;;;;9.03;8.23;;;;;;;;;;5058747;28;20608;-64
2023/04/17 13:58:26;;;;;;;8.73;8.02;;;;;;;;;;5054245;28;20630;-64
2023/04/17 14:00:55;;;;;;;8.80;8.10;;;;;;;;;;5069837;28;20200;-64
2023/04/17 14:03:23;;;;;;;8.07;7.40;;;;;;;;;;5063230;28;20627;-63
2023/04/17 14:05:51;;;;;;;8.67;7.40;;;;;;;;;;5052279;28;21214;-65
2023/04/17 14:08:20;;;;;;;8.00;7.20;;;;;;;;;;5053592;28;20973;-65
2023/04/17 14:10:49;;;;;;;8.23;7.23;;;;;;;;;;5053212;28;20892;-63
2023/04/17 14:13:18;;;;;;;10.32;8.82;;;;;;;;;;5054236;28;20692;-64
2023/04/17 14:15:47;;;;;;;9.43;8.63;;;;;;;;;;5061802;28;20213;-63
2023/04/17 14:18:16;;;;;;;9.37;8.57;;;;;;;;;;5062541;28;20638;-65
2023/04/17 14:20:45;;;;;;;8.53;7.70;;;;;;;;;;5072218;28;20621;-64
2023/04/17 14:23:13;;;;;;;9.50;7.60;;;;;;;;;;5061232;28;20634;-63
2023/04/17 14:25:41;;;;;;;9.37;8.00;;;;;;;;;;5054278;28;21046;-64
2023/04/17 14:28:11;;;;;;;9.30;8.40;;;;;;;;;;5036770;28;20610;-64
2023/04/17 14:30:39;;;;;;;9.00;8.20;;;;;;;;;;5070383;28;20658;-64
2023/04/17 14:33:08;;;;;;;9.87;8.23;;;;;;;;;;5061413;28;20630;-65
2023/04/17 14:35:36;;;;;;;9.13;8.40;;;;;;;;;;5054473;28;20605;-64
2023/04/17 14:38:04;;;;;;;8.97;8.07;;;;;;;;;;5052506;28;21153;-63